Amy C. Mc Allister — WCZ9520 — position and weather

sailwx.info

Track history (hours):
 
Tides and Currents Weather Stations Pressure Air Temp Water Temp Dewpoint Dewpoint Depression Visibility Wind Speed Wind Dir Waves Ship Positions

Amy C. Mc Allister

Owner: MC ALLISTER TOWING & TRANSPORTATION INC, NEW YORK, NY. More information available from US FCC via Universal Licensing System and Coast Guard Vessel Documentation Center.

Last reported at 2016-Jul-31 02:33 UTC. Time now 2016-Jul-31 03:33 UTC.
Position N 40°40' W 074°05'.

; draft 4.9 m.

Type: Towing. MMSI: 366995040.

Date/timePositionNaut miles runAvg speedWind from/ knotsBaromVisibWave heightAir tempDewpointWater temp
2016-Jul-31 02:33N 40°40' W 074°05'0 0.0
2016-Jul-31 01:34N 40°40' W 074°05'0 0.0
2016-Jul-31 00:33N 40°40' W 074°05'0 0.0
2016-Jul-30 22:33N 40°40' W 074°05'0 0.0
2016-Jul-30 21:33N 40°40' W 074°05'0 0.0
2016-Jul-30 20:33N 40°40' W 074°05'0 0.0
2016-Jul-30 19:34N 40°40' W 074°05'0 0.1
2016-Jul-30 18:34N 40°40' W 074°05'4 4.2
2016-Jul-30 17:33N 40°37' W 074°03'6 5.1
2016-Jul-30 16:25N 40°38' W 074°10'0 0.0
2016-Jul-30 15:33N 40°38' W 074°10'0 0.0
2016-Jul-30 14:33N 40°38' W 074°10'0 0.0
2016-Jul-30 13:34N 40°38' W 074°10'0 0.0
2016-Jul-30 12:32N 40°38' W 074°10'4 4.5
2016-Jul-30 11:34N 40°40' W 074°04'0 0.0
2016-Jul-30 10:34N 40°40' W 074°04'0 0.1
2016-Jul-30 09:33N 40°40' W 074°04'0 0.1
2016-Jul-30 08:34N 40°40' W 074°04'0 0.0
2016-Jul-30 07:34N 40°40' W 074°04'4 4.4
2016-Jul-30 06:33N 40°39' W 074°10'0 0.0
2016-Jul-29 20:32N 40°39' W 074°10'6 5.7
2016-Jul-29 19:34N 40°38' W 074°03'4 3.8
2016-Jul-29 18:34N 40°41' W 074°01'1 0.5
2016-Jul-29 17:34N 40°42' W 074°00'1 0.7
2016-Jul-29 16:33N 40°42' W 073°60'1 0.7
2016-Jul-29 15:34N 40°43' W 073°59'7 6.5
2016-Jul-29 14:33N 40°39' W 074°06'3 2.2
2016-Jul-29 13:19N 40°38' W 074°10'0 0.0
2016-Jul-29 12:33N 40°38' W 074°10'0 0.0
2016-Jul-29 11:31N 40°38' W 074°10'0 0.0
2016-Jul-29 10:33N 40°38' W 074°10'0 0.0
2016-Jul-29 09:33N 40°38' W 074°10'0 0.0
2016-Jul-29 08:33N 40°38' W 074°10'0 0.0
2016-Jul-29 03:04N 40°38' W 074°10'1 2.9
2016-Jul-29 02:33N 40°40' W 074°09'2 0.8
2016-Jul-28 23:33N 40°39' W 074°06'2 2.5
2016-Jul-28 22:33N 40°40' W 074°09'2 0.3
2016-Jul-28 16:11N 40°39' W 074°10'1 1.7
2016-Jul-28 15:30N 40°39' W 074°09'0 0.2
2016-Jul-28 13:34N 40°40' W 074°09'0 0.0
2016-Jul-28 12:33N 40°40' W 074°09'2 1.8
2016-Jul-28 11:34N 40°41' W 074°08'2 2.2
2016-Jul-28 10:31N 40°39' W 074°09'1 0.9
2016-Jul-28 09:34N 40°40' W 074°09'0 0.2
2016-Jul-28 08:33N 40°40' W 074°09'1 1.1
2016-Jul-28 07:15N 40°38' W 074°10'0 0.1
2016-Jul-28 02:33N 40°38' W 074°09'2 2.4
2016-Jul-28 01:33N 40°41' W 074°09'1 1.4
2016-Jul-28 00:33N 40°39' W 074°09'3 3.2
2016-Jul-27 23:34N 40°40' W 074°05'5 2.6
2016-Jul-27 21:31N 40°39' W 074°11'1 0.9
2016-Jul-27 20:33N 40°39' W 074°10'4 3.7
2016-Jul-27 19:26N 40°35' W 074°13'3 1.1
2016-Jul-27 16:30N 40°38' W 074°12'2 1.6
2016-Jul-27 15:31N 40°38' W 074°10'0 0.0
2016-Jul-27 14:33N 40°38' W 074°10'0 0.0
2016-Jul-27 12:29N 40°38' W 074°10'1 1.4
2016-Jul-27 11:34N 40°40' W 074°09'1 0.7
2016-Jul-27 10:33N 40°39' W 074°09'1 1.2
2016-Jul-27 09:33N 40°40' W 074°08'2 1.9
2016-Jul-27 08:34N 40°38' W 074°10'2 1.8
2016-Jul-27 07:32N 40°38' W 074°12'0 0.0
2016-Jul-27 06:32N 40°38' W 074°12'4 3.7
2016-Jul-27 05:33N 40°39' W 074°07'3 3.1
2016-Jul-27 04:33N 40°39' W 074°03'1 1.0
2016-Jul-27 03:34N 40°40' W 074°04'1 0.9
2016-Jul-27 02:33N 40°40' W 074°05'3 3.1
2016-Jul-27 01:33N 40°38' W 074°03'2 2.2
2016-Jul-27 00:33N 40°40' W 074°04'0 0.0
2016-Jul-26 23:34N 40°40' W 074°04'2 1.5
2016-Jul-26 22:34N 40°39' W 074°06'3 2.8
2016-Jul-26 21:25N 40°38' W 074°10'0 0.0
2016-Jul-26 18:33N 40°38' W 074°10'0 0.0
2016-Jul-26 17:33N 40°38' W 074°10'0 0.0
2016-Jul-26 16:32N 40°38' W 074°10'0 0.0
2016-Jul-26 15:27N 40°38' W 074°10'0 0.0
2016-Jul-26 12:11N 40°38' W 074°10'3 4.9
2016-Jul-26 11:33N 40°39' W 074°06'0 0.3
2016-Jul-26 10:34N 40°39' W 074°06'3 1.9
2016-Jul-26 09:05N 40°38' W 074°10'2 2.9
2016-Jul-26 08:33N 40°38' W 074°12'3 3.3
2016-Jul-26 07:33N 40°35' W 074°13'3 3.0
2016-Jul-26 06:31N 40°38' W 074°12'6 5.8
2016-Jul-26 05:33N 40°39' W 074°05'1 0.7
2016-Jul-26 04:33N 40°39' W 074°04'1 0.9
2016-Jul-26 03:34N 40°39' W 074°05'4 1.7
2016-Jul-26 01:22N 40°38' W 074°10'0 0.0
2016-Jul-26 00:32N 40°38' W 074°10'0 0.0
2016-Jul-25 23:28N 40°38' W 074°10'3 2.8
2016-Jul-25 22:34N 40°41' W 074°09'1 0.9
2016-Jul-25 21:34N 40°40' W 074°08'3 2.6
2016-Jul-25 20:33N 40°39' W 074°06'3 3.2
2016-Jul-25 19:33N 40°38' W 074°10'0 0.0
2016-Jul-25 18:18N 40°38' W 074°10'0 0.0
2016-Jul-25 16:30N 40°38' W 074°10'0 0.0
2016-Jul-25 15:06N 40°38' W 074°10'0 0.0
2016-Jul-25 14:31N 40°38' W 074°10'0 0.0
2016-Jul-25 12:22N 40°38' W 074°10'3 3.3
2016-Jul-25 11:33N 40°41' W 074°09'2 2.4
2016-Jul-25 10:33N 40°39' W 074°09'5 4.8
2016-Jul-25 09:33N 40°38' W 074°03'3 2.6
2016-Jul-25 08:34N 40°39' W 074°06'2 2.2
2016-Jul-25 07:34N 40°40' W 074°09'2 2.3
2016-Jul-25 06:34N 40°39' W 074°06'2 1.8
2016-Jul-25 05:33N 40°39' W 074°04'5 1.9
2016-Jul-25 03:08N 40°38' W 074°10'0 0.0
2016-Jul-25 02:27N 40°38' W 074°10'0 0.1
2016-Jul-24 23:32N 40°38' W 074°09'5 5.0
2016-Jul-24 22:33N 40°38' W 074°03'3 2.9
2016-Jul-24 21:33N 40°39' W 074°07'2 0.2
2016-Jul-24 11:17N 40°38' W 074°09'1 1.6
2016-Jul-24 10:33N 40°40' W 074°09'1 1.0
2016-Jul-24 09:32N 40°39' W 074°09'4 3.8
2016-Jul-24 08:33N 40°39' W 074°04'4 1.8
2016-Jul-24 06:33N 40°40' W 074°08'1 0.7
2016-Jul-24 05:33N 40°41' W 074°09'4 3.5
2016-Jul-24 04:34N 40°39' W 074°04'2 2.0
2016-Jul-24 03:33N 40°41' W 074°04'5 0.4
2016-Jul-23 16:19N 40°38' W 074°10'1 1.8
2016-Jul-23 15:33N 40°40' W 074°09'0 0.1
2016-Jul-23 14:33N 40°40' W 074°09'0 0.0
2016-Jul-23 13:33N 40°40' W 074°09'3 3.1
2016-Jul-23 12:33N 40°42' W 074°07'1 1.2
2016-Jul-23 11:33N 40°41' W 074°08'0 0.0
2016-Jul-23 10:33N 40°41' W 074°08'0 0.0
2016-Jul-23 09:33N 40°41' W 074°08'0 0.0
2016-Jul-23 08:33N 40°41' W 074°08'0 0.0
2016-Jul-23 07:33N 40°41' W 074°08'0 0.0
2016-Jul-23 06:33N 40°41' W 074°08'3 1.6
2016-Jul-23 04:30N 40°38' W 074°10'2 2.3
2016-Jul-23 03:33N 40°39' W 074°07'0 0.5
2016-Jul-23 02:33N 40°39' W 074°06'3 1.8
2016-Jul-23 01:05N 40°38' W 074°10'2 0.9
2016-Jul-22 23:03N 40°38' W 074°12'0 0.1
2016-Jul-22 22:24N 40°38' W 074°12'2 2.4
2016-Jul-22 21:33N 40°38' W 074°10'1 1.2
2016-Jul-22 20:33N 40°40' W 074°09'0 0.0
2016-Jul-22 19:33N 40°40' W 074°09'0 0.0
2016-Jul-22 18:33N 40°40' W 074°09'0 0.0
2016-Jul-22 17:33N 40°40' W 074°09'0 0.0
2016-Jul-22 16:33N 40°40' W 074°09'0 0.0
2016-Jul-22 15:33N 40°40' W 074°09'0 0.0
2016-Jul-22 14:33N 40°40' W 074°09'0 0.0
2016-Jul-22 13:32N 40°40' W 074°09'0 0.0
2016-Jul-22 12:32N 40°40' W 074°09'0 0.0
2016-Jul-22 11:33N 40°40' W 074°09'0 0.0
2016-Jul-22 10:33N 40°40' W 074°09'2 2.0
2016-Jul-22 09:33N 40°39' W 074°07'2 1.7
2016-Jul-22 08:33N 40°40' W 074°09'0 0.1
2016-Jul-22 07:33N 40°40' W 074°09'2 0.8
2016-Jul-22 05:33N 40°38' W 074°10'0 0.0
2016-Jul-21 22:33N 40°38' W 074°09'4 4.0
2016-Jul-21 21:34N 40°40' W 074°05'0 0.0
2016-Jul-21 20:33N 40°40' W 074°05'4 4.1
2016-Jul-21 19:33N 40°36' W 074°03'3 3.5
2016-Jul-21 18:33N 40°39' W 074°06'0 0.2
2016-Jul-21 17:33N 40°39' W 074°06'3 2.7
2016-Jul-21 16:33N 40°38' W 074°10'0 0.0
2016-Jul-21 15:33N 40°38' W 074°10'2 1.3
2016-Jul-21 14:09N 40°38' W 074°12'2 2.8
2016-Jul-21 13:33N 40°39' W 074°10'6 5.7
2016-Jul-21 12:33N 40°37' W 074°03'2 1.9
2016-Jul-21 11:33N 40°39' W 074°03'2 1.9
2016-Jul-21 10:33N 40°39' W 074°06'2 2.3
2016-Jul-21 09:33N 40°40' W 074°09'0 0.2
2016-Jul-21 08:33N 40°40' W 074°09'2 1.2
2016-Jul-21 06:33N 40°39' W 074°06'5 5.2
2016-Jul-21 05:33N 40°43' W 074°01'0 0.0
2016-Jul-21 04:33N 40°43' W 074°01'4 4.0
2016-Jul-21 03:33N 40°46' W 073°57'  
Track history (hours):
 
Tides and Currents Weather Stations Pressure Air Temp Water Temp Dewpoint Dewpoint Depression Visibility Wind Speed Wind Dir Waves Ship Positions

Amy C. Mc Allister

Owner: MC ALLISTER TOWING & TRANSPORTATION INC, NEW YORK, NY. More information available from US FCC via Universal Licensing System and Coast Guard Vessel Documentation Center.

Last reported at 2016-Jul-31 02:33 UTC. Time now 2016-Jul-31 03:33 UTC.
Position N 40°40' W 074°05'.

; draft 4.9 m.

Type: Towing. MMSI: 366995040.

Date/timePositionNaut miles runAvg speedWind from/ knotsBaromVisibWave heightAir tempDewpointWater temp
2016-Jul-31 02:33N 40°40' W 074°05'0 0.0
2016-Jul-31 01:34N 40°40' W 074°05'0 0.0
2016-Jul-31 00:33N 40°40' W 074°05'0 0.0
2016-Jul-30 22:33N 40°40' W 074°05'0 0.0
2016-Jul-30 21:33N 40°40' W 074°05'0 0.0
2016-Jul-30 20:33N 40°40' W 074°05'0 0.0
2016-Jul-30 19:34N 40°40' W 074°05'0 0.1
2016-Jul-30 18:34N 40°40' W 074°05'4 4.2
2016-Jul-30 17:33N 40°37' W 074°03'6 5.1
2016-Jul-30 16:25N 40°38' W 074°10'0 0.0
2016-Jul-30 15:33N 40°38' W 074°10'0 0.0
2016-Jul-30 14:33N 40°38' W 074°10'0 0.0
2016-Jul-30 13:34N 40°38' W 074°10'0 0.0
2016-Jul-30 12:32N 40°38' W 074°10'4 4.5
2016-Jul-30 11:34N 40°40' W 074°04'0 0.0
2016-Jul-30 10:34N 40°40' W 074°04'0 0.1
2016-Jul-30 09:33N 40°40' W 074°04'0 0.1
2016-Jul-30 08:34N 40°40' W 074°04'0 0.0
2016-Jul-30 07:34N 40°40' W 074°04'4 4.4
2016-Jul-30 06:33N 40°39' W 074°10'0 0.0
2016-Jul-29 20:32N 40°39' W 074°10'6 5.7
2016-Jul-29 19:34N 40°38' W 074°03'4 3.8
2016-Jul-29 18:34N 40°41' W 074°01'1 0.5
2016-Jul-29 17:34N 40°42' W 074°00'1 0.7
2016-Jul-29 16:33N 40°42' W 073°60'1 0.7
2016-Jul-29 15:34N 40°43' W 073°59'7 6.5
2016-Jul-29 14:33N 40°39' W 074°06'3 2.2
2016-Jul-29 13:19N 40°38' W 074°10'0 0.0
2016-Jul-29 12:33N 40°38' W 074°10'0 0.0
2016-Jul-29 11:31N 40°38' W 074°10'0 0.0
2016-Jul-29 10:33N 40°38' W 074°10'0 0.0
2016-Jul-29 09:33N 40°38' W 074°10'0 0.0
2016-Jul-29 08:33N 40°38' W 074°10'0 0.0
2016-Jul-29 03:04N 40°38' W 074°10'1 2.9
2016-Jul-29 02:33N 40°40' W 074°09'2 0.8
2016-Jul-28 23:33N 40°39' W 074°06'2 2.5
2016-Jul-28 22:33N 40°40' W 074°09'2 0.3
2016-Jul-28 16:11N 40°39' W 074°10'1 1.7
2016-Jul-28 15:30N 40°39' W 074°09'0 0.2
2016-Jul-28 13:34N 40°40' W 074°09'0 0.0
2016-Jul-28 12:33N 40°40' W 074°09'2 1.8
2016-Jul-28 11:34N 40°41' W 074°08'2 2.2
2016-Jul-28 10:31N 40°39' W 074°09'1 0.9
2016-Jul-28 09:34N 40°40' W 074°09'0 0.2
2016-Jul-28 08:33N 40°40' W 074°09'1 1.1
2016-Jul-28 07:15N 40°38' W 074°10'0 0.1
2016-Jul-28 02:33N 40°38' W 074°09'2 2.4
2016-Jul-28 01:33N 40°41' W 074°09'1 1.4
2016-Jul-28 00:33N 40°39' W 074°09'3 3.2
2016-Jul-27 23:34N 40°40' W 074°05'5 2.6
2016-Jul-27 21:31N 40°39' W 074°11'1 0.9
2016-Jul-27 20:33N 40°39' W 074°10'4 3.7
2016-Jul-27 19:26N 40°35' W 074°13'3 1.1
2016-Jul-27 16:30N 40°38' W 074°12'2 1.6
2016-Jul-27 15:31N 40°38' W 074°10'0 0.0
2016-Jul-27 14:33N 40°38' W 074°10'0 0.0
2016-Jul-27 12:29N 40°38' W 074°10'1 1.4
2016-Jul-27 11:34N 40°40' W 074°09'1 0.7
2016-Jul-27 10:33N 40°39' W 074°09'1 1.2
2016-Jul-27 09:33N 40°40' W 074°08'2 1.9
2016-Jul-27 08:34N 40°38' W 074°10'2 1.8
2016-Jul-27 07:32N 40°38' W 074°12'0 0.0
2016-Jul-27 06:32N 40°38' W 074°12'4 3.7
2016-Jul-27 05:33N 40°39' W 074°07'3 3.1
2016-Jul-27 04:33N 40°39' W 074°03'1 1.0
2016-Jul-27 03:34N 40°40' W 074°04'1 0.9
2016-Jul-27 02:33N 40°40' W 074°05'3 3.1
2016-Jul-27 01:33N 40°38' W 074°03'2 2.2
2016-Jul-27 00:33N 40°40' W 074°04'0 0.0
2016-Jul-26 23:34N 40°40' W 074°04'2 1.5
2016-Jul-26 22:34N 40°39' W 074°06'3 2.8
2016-Jul-26 21:25N 40°38' W 074°10'0 0.0
2016-Jul-26 18:33N 40°38' W 074°10'0 0.0
2016-Jul-26 17:33N 40°38' W 074°10'0 0.0
2016-Jul-26 16:32N 40°38' W 074°10'0 0.0
2016-Jul-26 15:27N 40°38' W 074°10'0 0.0
2016-Jul-26 12:11N 40°38' W 074°10'3 4.9
2016-Jul-26 11:33N 40°39' W 074°06'0 0.3
2016-Jul-26 10:34N 40°39' W 074°06'3 1.9
2016-Jul-26 09:05N 40°38' W 074°10'2 2.9
2016-Jul-26 08:33N 40°38' W 074°12'3 3.3
2016-Jul-26 07:33N 40°35' W 074°13'3 3.0
2016-Jul-26 06:31N 40°38' W 074°12'6 5.8
2016-Jul-26 05:33N 40°39' W 074°05'1 0.7
2016-Jul-26 04:33N 40°39' W 074°04'1 0.9
2016-Jul-26 03:34N 40°39' W 074°05'4 1.7
2016-Jul-26 01:22N 40°38' W 074°10'0 0.0
2016-Jul-26 00:32N 40°38' W 074°10'0 0.0
2016-Jul-25 23:28N 40°38' W 074°10'3 2.8
2016-Jul-25 22:34N 40°41' W 074°09'1 0.9
2016-Jul-25 21:34N 40°40' W 074°08'3 2.6
2016-Jul-25 20:33N 40°39' W 074°06'3 3.2
2016-Jul-25 19:33N 40°38' W 074°10'0 0.0
2016-Jul-25 18:18N 40°38' W 074°10'0 0.0
2016-Jul-25 16:30N 40°38' W 074°10'0 0.0
2016-Jul-25 15:06N 40°38' W 074°10'0 0.0
2016-Jul-25 14:31N 40°38' W 074°10'0 0.0
2016-Jul-25 12:22N 40°38' W 074°10'3 3.3
2016-Jul-25 11:33N 40°41' W 074°09'2 2.4
2016-Jul-25 10:33N 40°39' W 074°09'5 4.8
2016-Jul-25 09:33N 40°38' W 074°03'3 2.6
2016-Jul-25 08:34N 40°39' W 074°06'2 2.2
2016-Jul-25 07:34N 40°40' W 074°09'2 2.3
2016-Jul-25 06:34N 40°39' W 074°06'2 1.8
2016-Jul-25 05:33N 40°39' W 074°04'5 1.9
2016-Jul-25 03:08N 40°38' W 074°10'0 0.0
2016-Jul-25 02:27N 40°38' W 074°10'0 0.1
2016-Jul-24 23:32N 40°38' W 074°09'5 5.0
2016-Jul-24 22:33N 40°38' W 074°03'3 2.9
2016-Jul-24 21:33N 40°39' W 074°07'2 0.2
2016-Jul-24 11:17N 40°38' W 074°09'1 1.6
2016-Jul-24 10:33N 40°40' W 074°09'1 1.0
2016-Jul-24 09:32N 40°39' W 074°09'4 3.8
2016-Jul-24 08:33N 40°39' W 074°04'4 1.8
2016-Jul-24 06:33N 40°40' W 074°08'1 0.7
2016-Jul-24 05:33N 40°41' W 074°09'4 3.5
2016-Jul-24 04:34N 40°39' W 074°04'2 2.0
2016-Jul-24 03:33N 40°41' W 074°04'5 0.4
2016-Jul-23 16:19N 40°38' W 074°10'1 1.8
2016-Jul-23 15:33N 40°40' W 074°09'0 0.1
2016-Jul-23 14:33N 40°40' W 074°09'0 0.0
2016-Jul-23 13:33N 40°40' W 074°09'3 3.1
2016-Jul-23 12:33N 40°42' W 074°07'1 1.2
2016-Jul-23 11:33N 40°41' W 074°08'0 0.0
2016-Jul-23 10:33N 40°41' W 074°08'0 0.0
2016-Jul-23 09:33N 40°41' W 074°08'0 0.0
2016-Jul-23 08:33N 40°41' W 074°08'0 0.0
2016-Jul-23 07:33N 40°41' W 074°08'0 0.0
2016-Jul-23 06:33N 40°41' W 074°08'3 1.6
2016-Jul-23 04:30N 40°38' W 074°10'2 2.3
2016-Jul-23 03:33N 40°39' W 074°07'0 0.5
2016-Jul-23 02:33N 40°39' W 074°06'3 1.8
2016-Jul-23 01:05N 40°38' W 074°10'2 0.9
2016-Jul-22 23:03N 40°38' W 074°12'0 0.1
2016-Jul-22 22:24N 40°38' W 074°12'2 2.4
2016-Jul-22 21:33N 40°38' W 074°10'1 1.2
2016-Jul-22 20:33N 40°40' W 074°09'0 0.0
2016-Jul-22 19:33N 40°40' W 074°09'0 0.0
2016-Jul-22 18:33N 40°40' W 074°09'0 0.0
2016-Jul-22 17:33N 40°40' W 074°09'0 0.0
2016-Jul-22 16:33N 40°40' W 074°09'0 0.0
2016-Jul-22 15:33N 40°40' W 074°09'0 0.0
2016-Jul-22 14:33N 40°40' W 074°09'0 0.0
2016-Jul-22 13:32N 40°40' W 074°09'0 0.0
2016-Jul-22 12:32N 40°40' W 074°09'0 0.0
2016-Jul-22 11:33N 40°40' W 074°09'0 0.0
2016-Jul-22 10:33N 40°40' W 074°09'2 2.0
2016-Jul-22 09:33N 40°39' W 074°07'2 1.7
2016-Jul-22 08:33N 40°40' W 074°09'0 0.1
2016-Jul-22 07:33N 40°40' W 074°09'2 0.8
2016-Jul-22 05:33N 40°38' W 074°10'0 0.0
2016-Jul-21 22:33N 40°38' W 074°09'4 4.0
2016-Jul-21 21:34N 40°40' W 074°05'0 0.0
2016-Jul-21 20:33N 40°40' W 074°05'4 4.1
2016-Jul-21 19:33N 40°36' W 074°03'3 3.5
2016-Jul-21 18:33N 40°39' W 074°06'0 0.2
2016-Jul-21 17:33N 40°39' W 074°06'3 2.7
2016-Jul-21 16:33N 40°38' W 074°10'0 0.0
2016-Jul-21 15:33N 40°38' W 074°10'2 1.3
2016-Jul-21 14:09N 40°38' W 074°12'2 2.8
2016-Jul-21 13:33N 40°39' W 074°10'6 5.7
2016-Jul-21 12:33N 40°37' W 074°03'2 1.9
2016-Jul-21 11:33N 40°39' W 074°03'2 1.9
2016-Jul-21 10:33N 40°39' W 074°06'2 2.3
2016-Jul-21 09:33N 40°40' W 074°09'0 0.2
2016-Jul-21 08:33N 40°40' W 074°09'2 1.2
2016-Jul-21 06:33N 40°39' W 074°06'5 5.2
2016-Jul-21 05:33N 40°43' W 074°01'0 0.0
2016-Jul-21 04:33N 40°43' W 074°01'4 4.0
2016-Jul-21 03:33N 40°46' W 073°57'  

Dump ship's entire track history